createdAt,value
2023-04-21T00:01:37.045Z,6.85
2023-04-21T00:06:44.812Z,5.90
2023-04-21T00:11:49.623Z,6.00
2023-04-21T00:16:54.619Z,5.43
2023-04-21T00:22:02.039Z,6.35
2023-04-21T00:27:07.158Z,5.53
2023-04-21T00:32:11.982Z,5.50
2023-04-21T00:37:19.381Z,6.05
2023-04-21T00:42:24.180Z,5.93
2023-04-21T00:47:29.060Z,6.00
2023-04-21T00:52:37.009Z,5.05
2023-04-21T00:57:41.928Z,6.72
2023-04-21T01:02:47.520Z,6.18
2023-04-21T01:07:55.326Z,5.97
2023-04-21T01:13:00.123Z,6.13
2023-04-21T01:18:05.538Z,5.95
2023-04-21T01:23:13.037Z,6.63
2023-04-21T01:28:17.894Z,5.80
2023-04-21T01:33:23.248Z,6.20
2023-04-21T01:38:30.803Z,15.10
2023-04-21T01:43:35.603Z,6.10
2023-04-21T01:48:40.602Z,7.13
2023-04-21T01:53:48.144Z,6.07
2023-04-21T01:58:53.610Z,6.28
2023-04-21T02:03:58.702Z,5.82
2023-04-21T02:09:06.332Z,6.30
2023-04-21T02:14:11.352Z,5.53
2023-04-21T02:19:16.363Z,7.10
2023-04-21T02:24:23.990Z,6.68
2023-04-21T02:29:28.802Z,7.05
2023-04-21T02:34:33.590Z,5.50
2023-04-21T02:39:40.992Z,6.72
2023-04-21T02:44:46.150Z,5.90
2023-04-21T02:49:50.995Z,6.13
2023-04-21T02:54:58.379Z,8.35
2023-04-21T03:00:03.167Z,5.05
2023-04-21T03:05:08.118Z,5.07
2023-04-21T03:10:15.883Z,5.55
2023-04-21T03:15:21.387Z,6.30
2023-04-21T03:20:26.182Z,5.45
2023-04-21T03:25:33.625Z,5.13
2023-04-21T03:30:38.536Z,4.90
2023-04-21T03:35:43.266Z,5.43
2023-04-21T03:40:50.818Z,5.30
2023-04-21T03:45:55.606Z,5.50
2023-04-21T03:51:00.442Z,4.88
2023-04-21T03:56:08.189Z,5.35
2023-04-21T04:01:13.020Z,5.03
2023-04-21T04:06:17.933Z,5.13
2023-04-21T04:11:25.366Z,5.78
2023-04-21T04:16:30.277Z,5.07
2023-04-21T04:21:35.294Z,5.55
2023-04-21T04:26:43.071Z,5.30
2023-04-21T04:31:47.939Z,6.20
2023-04-21T04:36:53.074Z,8.88
2023-04-21T04:42:01.618Z,5.68
2023-04-21T04:47:07.709Z,5.20
2023-04-21T04:52:12.479Z,4.90
2023-04-21T04:57:19.807Z,4.53
2023-04-21T05:02:25.258Z,4.40
2023-04-21T05:07:30.201Z,4.47
2023-04-21T05:12:37.614Z,5.18
2023-04-21T05:17:42.468Z,15.48
2023-04-21T05:22:47.438Z,4.72
2023-04-21T05:27:54.833Z,4.45
2023-04-21T05:32:59.676Z,4.65
2023-04-21T05:38:04.674Z,4.03
2023-04-21T05:43:12.227Z,6.28
2023-04-21T05:48:17.161Z,4.50
2023-04-21T05:53:23.906Z,4.80
2023-04-21T05:58:31.488Z,4.53
2023-04-21T06:03:36.825Z,4.60
2023-04-21T06:08:41.757Z,4.25
2023-04-21T06:13:49.149Z,4.47
2023-04-21T06:18:53.963Z,4.10
2023-04-21T06:23:58.720Z,4.82
2023-04-21T06:29:06.172Z,4.32
2023-04-21T06:34:11.207Z,4.57
2023-04-21T06:39:16.118Z,4.30
2023-04-21T06:44:23.561Z,4.80
2023-04-21T06:49:28.427Z,5.18
2023-04-21T06:54:33.228Z,5.57
2023-04-21T06:59:44.044Z,5.15
2023-04-21T07:04:49.009Z,4.90
2023-04-21T07:09:53.966Z,4.75
2023-04-21T07:15:01.507Z,5.13
2023-04-21T07:20:06.412Z,5.35
2023-04-21T07:25:12.359Z,4.95
2023-04-21T07:30:20.036Z,4.72
2023-04-21T07:35:27.479Z,4.70
2023-04-21T07:40:32.351Z,4.68
2023-04-21T07:45:39.804Z,5.60
2023-04-21T07:50:44.624Z,5.70
2023-04-21T07:55:49.391Z,6.10
2023-04-21T08:00:56.822Z,5.03
2023-04-21T08:06:01.680Z,4.95
2023-04-21T08:11:07.123Z,5.22
2023-04-21T08:16:15.517Z,4.53
2023-04-21T08:21:20.489Z,4.30
2023-04-21T08:26:26.025Z,4.72
2023-04-21T08:31:34.231Z,5.47
2023-04-21T08:36:39.157Z,4.43
2023-04-21T08:41:44.254Z,5.32
2023-04-21T08:46:52.184Z,3.72
2023-04-21T08:51:57.067Z,3.55
2023-04-21T08:57:14.102Z,4.05
2023-04-21T09:02:23.059Z,3.37
2023-04-21T09:07:35.212Z,3.88
2023-04-21T09:12:42.097Z,3.80
2023-04-21T09:17:50.434Z,3.88
2023-04-21T09:22:55.625Z,4.03
2023-04-21T09:28:00.653Z,4.45
2023-04-21T09:33:20.216Z,3.30
2023-04-21T09:38:32.576Z,3.88
2023-04-21T09:43:37.424Z,3.75
2023-04-21T09:48:46.945Z,3.10
2023-04-21T09:53:52.400Z,3.33
2023-04-21T09:58:57.768Z,3.47
2023-04-21T10:04:06.093Z,3.17
2023-04-21T10:09:12.194Z,2.83
2023-04-21T10:14:17.123Z,3.85
2023-04-21T10:19:35.896Z,2.95
2023-04-21T10:24:42.090Z,2.90
2023-04-21T10:29:56.031Z,3.00
2023-04-21T10:35:12.141Z,3.38
2023-04-21T10:40:44.138Z,3.13
2023-04-21T10:45:49.682Z,3.28
2023-04-21T10:50:57.059Z,3.30
2023-04-21T10:56:02.106Z,3.00
2023-04-21T11:01:07.015Z,3.38
2023-04-21T11:06:21.235Z,2.95
2023-04-21T11:11:27.129Z,3.08
2023-04-21T11:16:32.210Z,3.10
2023-04-21T11:21:39.762Z,2.78
2023-04-21T11:26:45.498Z,3.10
2023-04-21T11:31:51.030Z,3.17
2023-04-21T11:37:00.800Z,2.90
2023-04-21T11:42:05.840Z,3.47
2023-04-21T11:47:19.644Z,3.25
2023-04-21T11:52:37.821Z,3.40
2023-04-21T11:57:43.072Z,3.22
2023-04-21T12:02:48.254Z,2.95
2023-04-21T12:07:58.955Z,2.78
2023-04-21T12:13:03.738Z,2.92
2023-04-21T12:18:16.130Z,2.78
2023-04-21T12:23:23.571Z,3.15
2023-04-21T12:28:28.382Z,2.42
2023-04-21T12:33:33.241Z,2.80
2023-04-21T12:38:41.037Z,3.22
2023-04-21T12:43:45.912Z,2.80
2023-04-21T12:48:52.640Z,3.05
2023-04-21T12:54:00.117Z,2.60
2023-04-21T12:59:04.973Z,4.18
2023-04-21T13:04:10.629Z,3.00
2023-04-21T13:09:18.241Z,3.10
2023-04-21T13:14:23.157Z,3.38
2023-04-21T13:19:30.152Z,2.78
2023-04-21T13:24:37.858Z,3.30
2023-04-21T13:29:42.859Z,3.45
2023-04-21T13:34:47.679Z,3.33
2023-04-21T13:39:55.147Z,2.75
2023-04-21T13:45:05.314Z,2.70
2023-04-21T13:50:10.720Z,3.10
2023-04-21T13:55:18.188Z,2.72
2023-04-21T14:00:23.302Z,3.20
2023-04-21T14:05:28.239Z,3.22
2023-04-21T14:10:36.143Z,3.05
2023-04-21T14:15:41.080Z,3.00
2023-04-21T14:20:46.185Z,2.72
2023-04-21T14:25:55.035Z,2.63
2023-04-21T14:31:02.144Z,2.83
2023-04-21T14:36:07.187Z,2.63
2023-04-21T14:41:14.889Z,2.90
2023-04-21T14:46:19.724Z,3.60
2023-04-21T14:51:24.730Z,2.65
2023-04-21T14:56:32.394Z,2.35
2023-04-21T15:01:37.270Z,6.63
2023-04-21T15:06:49.370Z,7.78
2023-04-21T15:11:57.334Z,2.72
2023-04-21T15:17:02.326Z,2.92
2023-04-21T15:22:07.862Z,2.25
2023-04-21T15:27:15.533Z,2.83
2023-04-21T15:32:20.507Z,2.25
2023-04-21T15:37:26.027Z,2.33
2023-04-21T15:42:36.746Z,3.05
2023-04-21T15:47:41.592Z,2.53
2023-04-21T15:52:46.805Z,2.53
2023-04-21T15:58:01.835Z,3.45
2023-04-21T16:03:07.299Z,3.85
2023-04-21T16:08:12.550Z,4.43
2023-04-21T16:13:20.668Z,3.50
2023-04-21T16:18:25.592Z,2.22
2023-04-21T16:23:30.439Z,1.77
2023-04-21T16:28:38.070Z,5.15
2023-04-21T16:33:42.880Z,5.13
2023-04-21T16:38:48.720Z,2.70
2023-04-21T16:43:56.177Z,2.15
2023-04-21T16:49:01.096Z,2.70
2023-04-21T16:54:05.925Z,1.73
2023-04-21T16:59:13.308Z,1.90
2023-04-21T17:04:18.228Z,1.80
2023-04-21T17:09:23.212Z,2.60
2023-04-21T17:14:33.941Z,2.83
2023-04-21T17:19:38.704Z,3.25
2023-04-21T17:24:52.521Z,9.85
2023-04-21T17:30:01.999Z,3.78
2023-04-21T17:35:07.031Z,3.72
2023-04-21T17:40:12.584Z,12.88
2023-04-21T17:45:20.111Z,8.65
2023-04-21T17:50:27.753Z,4.15
2023-04-21T17:55:32.602Z,10.82
2023-04-21T18:00:40.025Z,5.68
2023-04-21T18:05:44.837Z,5.30
2023-04-21T18:10:49.638Z,5.15
2023-04-21T18:21:11.848Z,7.72
2023-04-21T18:26:16.661Z,8.30
2023-04-21T18:31:22.100Z,5.63
2023-04-21T18:36:32.388Z,6.78
2023-04-21T18:41:41.014Z,7.20
2023-04-21T18:46:45.938Z,7.63
2023-04-21T18:51:53.388Z,7.32
2023-04-21T18:56:58.701Z,7.93
2023-04-21T19:02:04.303Z,9.32
2023-04-21T19:07:11.965Z,8.93
2023-04-21T19:12:16.810Z,8.95
2023-04-21T19:17:22.021Z,11.88
2023-04-21T19:22:32.233Z,11.88
2023-04-21T19:27:37.190Z,13.15
2023-04-21T19:32:42.138Z,13.50
2023-04-21T19:37:49.901Z,13.40
2023-04-21T19:42:54.696Z,15.65
2023-04-21T19:47:59.610Z,13.25
2023-04-21T19:53:07.052Z,14.75
2023-04-21T19:58:12.139Z,12.50
2023-04-21T20:03:17.122Z,15.80
2023-04-21T20:08:24.582Z,17.40
2023-04-21T20:13:29.433Z,67.55
2023-04-21T20:18:34.518Z,60.30
2023-04-21T20:23:41.968Z,56.97
2023-04-21T20:28:46.955Z,22.10
2023-04-21T20:33:51.932Z,13.52
2023-04-21T20:39:00.266Z,11.70
2023-04-21T20:44:05.855Z,9.57
2023-04-21T20:49:10.722Z,8.88
2023-04-21T20:54:18.297Z,9.80
2023-04-21T20:59:23.498Z,8.43
2023-04-21T21:04:28.364Z,8.73
2023-04-21T21:09:36.129Z,15.23
2023-04-21T21:14:41.113Z,10.65
2023-04-21T21:19:46.067Z,7.80
2023-04-21T21:24:53.493Z,6.97
2023-04-21T21:29:58.428Z,5.97
2023-04-21T21:35:03.208Z,6.88
2023-04-21T21:40:11.516Z,6.47
2023-04-21T21:45:16.766Z,9.45
2023-04-21T21:50:21.676Z,6.60
2023-04-21T21:55:30.045Z,6.45
2023-04-21T22:00:36.406Z,7.47
2023-04-21T22:05:42.499Z,7.38
2023-04-21T22:10:50.059Z,7.43
2023-04-21T22:15:54.960Z,7.00
2023-04-21T22:21:00.056Z,7.00
2023-04-21T22:26:08.423Z,7.65
2023-04-21T22:31:13.677Z,6.78
2023-04-21T22:36:18.726Z,11.13
2023-04-21T22:41:26.975Z,6.80
2023-04-21T22:46:33.913Z,7.40
2023-04-21T22:51:38.930Z,6.85
2023-04-21T22:56:46.438Z,6.97
2023-04-21T23:01:51.352Z,6.60
2023-04-21T23:06:56.214Z,6.32
2023-04-21T23:12:06.353Z,7.28
2023-04-21T23:22:15.696Z,6.72
2023-04-21T23:27:23.162Z,7.40
2023-04-21T23:32:28.211Z,7.60
2023-04-21T23:37:33.052Z,7.88
2023-04-21T23:42:40.756Z,8.20
2023-04-21T23:47:45.924Z,8.13
2023-04-21T23:52:50.847Z,9.07
2023-04-21T23:57:58.339Z,9.00
